SBPB

Details ICAO SBPB
Name PREFEITO DOUTOR JOAO SILVA FILHO
Region Brazil
Timezone America/Fortaleza (UTC-3.0)
Plans Departing 18
Arriving 19
Stats Elevation 16 ft / 5 m (AMSL)
Location -2.893747° -41.731961°
Runways 1
Magnetic Variation 21.047° W
Sunrise 2018-05-24 08:46:02 UTC / 2018-05-24 05:46:02 Local
Sunset 2018-05-24 20:44:23 UTC / 2018-05-24 17:44:23 Local
Advertisement - Login to hide

Runways

ID Width Length Bearing (true) Bearing (mag) Surface Threshold Offset Overrun Length
09 148 ft / 45 m 6,902 ft / 2,104 m 73.53° 94.58° Asphalt 0 ft / 0 m 0 ft / 0 m
27 148 ft / 45 m 6,902 ft / 2,104 m 253.53° 274.58° Asphalt 0 ft / 0 m 0 ft / 0 m

Map

Weather


0- 5 10 15 20 25 30 35+ Temperature / ° C

Clouds and Precipitation
Forecast for 2018-05-24 18:00 UTC. Updated 21 minutes ago

Ground ~20,000 ft ~40,000 ft Winds

METAR

SBPB 241700Z 06007KT 4000 -RA BKN015 OVC080 24/23 Q1013

TAF

Not found

Frequencies

Tower 126.60 MHz RDO
Warning: Do not use this data for real-world aviation or navigation. No guarantee of current accuracy is given.